Главная страница
METAR-TAF:

METAR-TAF

Аэропорты :

Хуна

Hoonah, Аляска, США

широта: 58-07N, долгота: 135-27W, высота над уровнем моря: 0 м

Текущие метеонаблюдения

Эта сводка был подготовлена 15 минут назад, в 18:56 UTC
Ветер 5 Узел от западный
Температура 14°C
Влажность 82%
Давление 1024 hPa
Видимость: 16.1 км
Сплошная облачность на высоте 3700 фута

METAR: PAOH 191856Z AUTO 27005KT 10SM OVC037 14/11 A3025 RMK AO2 SLP243 T01440111

Время: 11:11 (19:11 UTC)


TAF: отсутствует

Метеонаблюдения и прогнозы для более 4000 аэропортов (сводки METAR и TAF).

Имеющиеся станции представлены на карте желтыми и красными точками.

Чтобы увидеть название станции, наведите на нее мышь.

Затем щелкните, чтобы увидеть метеонаблюдения и метеопрогнозы.

Управление картой: чтобы увеличить масштаб, щелкните зеленые кнопки с черным крестиком; чтобы уменьшить масштаб, щелкните зеленую кнопку с тире; для просмотра соседних карт щелкайте зеленые стрелки.


METAR-TAF: